Time;durP1;ratioP1;P1;durP2;ratioP2;P2;SDS_P1;SDS_P2;PMS_P1;PMS_P2;Temp;Humidity;BMP_temperature;BMP_pressure;BME280_temperature;BME280_humidity;BME280_pressure;Samples;Min_cycle;Max_cycle;Signal;HPM_P1;HPM_P2
2024/02/26 00:01:52;;;;;;;39.30;19.50;;;;;;;10.21;61.50;98079.94;231715;198;139712;-58
2024/02/26 00:06:55;;;;;;;36.90;20.40;;;;;;;10.10;61.22;98084.66;231930;198;153214;-61
2024/02/26 00:11:59;;;;;;;43.10;20.30;;;;;;;10.01;61.15;98087.46;231665;197;138102;-60
2024/02/26 00:17:02;;;;;;;36.50;19.50;;;;;;;9.93;61.48;98083.63;231854;198;138779;-63
2024/02/26 00:22:05;;;;;;;38.20;19.70;;;;;;;9.82;61.60;98084.31;231777;197;153997;-61
2024/02/26 00:27:09;;;;;;;36.60;19.40;;;;;;;9.74;61.52;98083.13;231708;198;138207;-63
2024/02/26 00:32:12;;;;;;;41.10;19.80;;;;;;;9.68;61.89;98085.66;231715;198;137497;-63
2024/02/26 00:37:15;;;;;;;34.70;19.00;;;;;;;9.64;62.05;98081.85;231758;198;154301;-63
2024/02/26 00:42:18;;;;;;;35.50;19.40;;;;;;;9.58;62.06;98074.19;231788;198;138267;-62
2024/02/26 00:47:21;;;;;;;34.90;19.00;;;;;;;9.49;62.22;98065.48;231916;198;139024;-59
2024/02/26 00:52:25;;;;;;;34.60;18.00;;;;;;;9.41;62.44;98062.32;231817;201;153790;-66
2024/02/26 00:57:28;;;;;;;35.40;18.50;;;;;;;9.34;62.79;98067.42;231761;198;138225;-62
2024/02/26 01:02:31;;;;;;;33.10;19.10;;;;;;;9.27;62.82;98061.56;231684;198;138294;-61
2024/02/26 01:07:35;;;;;;;37.60;18.30;;;;;;;9.20;63.03;98068.77;231703;198;153115;-63
2024/02/26 01:12:39;;;;;;;34.30;18.10;;;;;;;9.15;63.06;98070.96;231802;198;138190;-60
2024/02/26 01:17:42;;;;;;;38.00;19.40;;;;;;;9.08;63.13;98065.41;231814;198;137315;-59
2024/02/26 01:22:46;;;;;;;31.40;18.90;;;;;;;9.02;63.18;98066.77;231876;205;153959;-61
2024/02/26 01:27:49;;;;;;;35.90;18.70;;;;;;;8.96;63.40;98067.55;231727;198;138537;-60
2024/02/26 01:32:52;;;;;;;31.60;18.60;;;;;;;8.88;63.42;98075.89;231728;202;138409;-60
2024/02/26 01:37:56;;;;;;;31.10;17.90;;;;;;;8.80;63.57;98077.00;231758;198;153071;-61
2024/02/26 01:43:00;;;;;;;38.90;18.50;;;;;;;8.72;63.75;98076.08;231682;198;137868;-60
2024/02/26 01:48:04;;;;;;;36.60;17.70;;;;;;;8.69;64.10;98069.77;231766;205;138420;-61
2024/02/26 01:53:08;;;;;;;31.40;17.10;;;;;;;8.64;64.18;98071.73;231888;198;153038;-63
2024/02/26 01:58:12;;;;;;;29.60;16.30;;;;;;;8.53;64.32;98070.87;231664;198;138897;-62
2024/02/26 02:03:16;;;;;;;33.30;17.20;;;;;;;8.50;64.60;98074.63;231723;198;138682;-60
2024/02/26 02:08:20;;;;;;;30.40;16.30;;;;;;;8.49;64.91;98079.08;231779;202;154113;-63
2024/02/26 02:13:23;;;;;;;31.60;17.30;;;;;;;8.43;65.09;98074.41;231798;202;138844;-60
2024/02/26 02:18:26;;;;;;;30.40;16.80;;;;;;;8.34;65.26;98068.09;231818;197;137979;-63
2024/02/26 02:23:29;;;;;;;27.70;16.30;;;;;;;8.30;65.74;98069.42;232004;202;153578;-62
2024/02/26 02:28:32;;;;;;;30.40;17.40;;;;;;;8.41;66.10;98075.30;231836;198;138008;-63
2024/02/26 02:33:37;;;;;;;29.50;16.20;;;;;;;8.51;66.12;98076.49;231844;198;137744;-63
2024/02/26 02:38:50;;;;;;;31.80;17.10;;;;;;;8.61;65.78;98080.27;231787;199;153366;-63
2024/02/26 02:43:53;;;;;;;33.60;17.70;;;;;;;8.61;65.38;98083.92;231893;197;140212;-62
2024/02/26 02:48:56;;;;;;;34.20;17.60;;;;;;;8.57;65.22;98080.50;231937;198;138958;-63
2024/02/26 02:53:59;;;;;;;33.70;18.20;;;;;;;8.51;64.96;98085.01;231917;201;153255;-61
2024/02/26 02:59:03;;;;;;;40.10;17.40;;;;;;;8.43;64.83;98083.57;231954;197;138886;-62
2024/02/26 03:04:06;;;;;;;34.40;18.00;;;;;;;8.35;64.80;98082.92;231827;201;138008;-61
2024/02/26 03:09:09;;;;;;;37.60;17.90;;;;;;;8.25;64.81;98080.93;231954;198;152980;-61
2024/02/26 03:14:13;;;;;;;33.70;17.10;;;;;;;8.15;65.00;98085.99;231835;198;138234;-58
2024/02/26 03:19:16;;;;;;;47.30;19.10;;;;;;;8.06;64.90;98089.45;231922;198;138625;-66
2024/02/26 03:24:19;;;;;;;46.60;18.90;;;;;;;7.97;65.00;98084.41;231924;198;153688;-56
2024/02/26 03:29:23;;;;;;;39.60;18.00;;;;;;;7.89;65.00;98077.48;231930;202;138411;-57
2024/02/26 03:34:27;;;;;;;37.20;18.00;;;;;;;7.81;65.12;98071.15;231843;198;137207;-57
2024/02/26 03:39:30;;;;;;;31.40;17.20;;;;;;;7.74;65.35;98065.98;231820;205;153604;-57
2024/02/26 03:44:33;;;;;;;39.00;17.90;;;;;;;7.66;65.47;98067.03;231816;198;138122;-56
2024/02/26 03:49:36;;;;;;;37.00;17.90;;;;;;;7.59;65.56;98070.63;231764;197;139179;-57
2024/02/26 03:54:40;;;;;;;41.60;18.00;;;;;;;7.53;65.75;98056.73;231860;198;153645;-57
2024/02/26 03:59:43;;;;;;;39.60;18.90;;;;;;;7.47;65.66;98062.45;231876;198;138299;-58
2024/02/26 04:04:47;;;;;;;40.20;18.10;;;;;;;7.43;65.75;98054.92;231933;198;137272;-57
2024/02/26 04:09:50;;;;;;;40.10;18.60;;;;;;;7.38;65.63;98042.75;231852;197;153340;-57
2024/02/26 04:14:54;;;;;;;37.30;18.20;;;;;;;7.35;65.55;98039.39;231783;205;138074;-56
2024/02/26 04:19:57;;;;;;;38.20;18.60;;;;;;;7.28;65.41;98043.21;231819;205;138542;-57
2024/02/26 04:25:00;;;;;;;42.40;19.20;;;;;;;7.20;65.28;98035.08;231832;198;153830;-57
2024/02/26 04:30:06;;;;;;;36.10;18.80;;;;;;;7.13;65.29;98039.39;231949;205;138025;-58
2024/02/26 04:35:09;;;;;;;31.30;18.10;;;;;;;7.10;65.58;98041.17;232033;198;138357;-62
2024/02/26 04:40:13;;;;;;;41.10;18.30;;;;;;;7.05;65.58;98041.67;231931;203;153741;-60
2024/02/26 04:45:16;;;;;;;43.80;17.00;;;;;;;7.01;65.74;98042.30;231827;205;142265;-60
2024/02/26 04:50:19;;;;;;;35.70;17.70;;;;;;;6.95;65.83;98038.27;231899;205;139389;-59
2024/02/26 04:55:22;;;;;;;32.10;18.20;;;;;;;7.01;65.88;98040.15;231749;203;154502;-60
2024/02/26 05:00:25;;;;;;;30.80;16.90;;;;;;;7.03;65.88;98041.46;231795;198;142194;-59
2024/02/26 05:05:29;;;;;;;31.80;18.50;;;;;;;7.06;65.65;98043.57;232261;197;138208;-59
2024/02/26 05:10:32;;;;;;;35.10;18.20;;;;;;;7.07;65.52;98040.66;232221;200;153495;-60
2024/02/26 05:15:36;;;;;;;42.30;18.80;;;;;;;7.04;65.35;98045.44;232191;196;138813;-62
2024/02/26 05:20:39;;;;;;;221.30;154.10;;;;;;;7.16;70.89;98042.91;232054;201;138286;-60
2024/02/26 05:25:42;;;;;;;95.90;68.10;;;;;;;7.61;67.52;98039.96;232350;204;153713;-61
2024/02/26 05:30:45;;;;;;;38.80;19.50;;;;;;;7.30;65.74;98040.94;232340;201;139142;-60
2024/02/26 05:35:49;;;;;;;159.30;110.70;;;;;;;7.09;65.57;98043.55;232342;201;139020;-61
2024/02/26 05:40:52;;;;;;;37.50;20.40;;;;;;;7.05;66.07;98046.77;232251;196;153556;-60
2024/02/26 05:45:55;;;;;;;40.60;19.70;;;;;;;6.96;65.55;98059.86;232149;196;138768;-55
2024/02/26 05:50:58;;;;;;;31.80;19.50;;;;;;;6.88;65.67;98064.61;231893;201;137710;-56
2024/02/26 05:56:02;;;;;;;37.40;18.40;;;;;;;6.81;65.92;98071.42;232181;204;155446;-57
2024/02/26 06:01:05;;;;;;;39.10;19.60;;;;;;;6.75;65.98;98073.23;232147;201;137904;-58
2024/02/26 06:06:08;;;;;;;34.40;18.70;;;;;;;6.70;66.50;98074.20;232268;204;137909;-57
2024/02/26 06:11:12;;;;;;;38.00;18.80;;;;;;;6.70;66.76;98084.29;232344;205;153724;-57
2024/02/26 06:16:15;;;;;;;35.80;17.10;;;;;;;6.68;66.86;98087.90;232119;198;138067;-59
2024/02/26 06:21:18;;;;;;;29.90;15.70;;;;;;;6.71;67.41;98088.92;232091;198;138385;-58
2024/02/26 06:26:21;;;;;;;37.20;18.70;;;;;;;6.83;67.53;98084.15;231877;199;153352;-56
2024/02/26 06:31:27;;;;;;;33.00;20.00;;;;;;;7.03;68.53;98085.21;231905;202;138728;-55
2024/02/26 06:36:31;;;;;;;;;;;;;;;7.21;68.16;98080.34;232200;202;140569;-55
2024/02/26 06:41:36;;;;;;;28.40;16.20;;;;;;;7.36;68.20;98079.55;232209;202;152196;-55
2024/02/26 06:46:39;;;;;;;25.30;16.20;;;;;;;7.51;67.99;98088.33;232002;202;138281;-55
2024/02/26 06:51:42;;;;;;;26.60;16.20;;;;;;;7.62;67.79;98092.16;232136;205;138297;-59
2024/02/26 06:56:46;;;;;;;28.10;16.50;;;;;;;7.71;67.95;98091.37;232130;201;154161;-57
2024/02/26 07:01:49;;;;;;;29.50;16.10;;;;;;;7.83;68.01;98098.95;232089;205;137154;-59
2024/02/26 07:06:53;;;;;;;166.20;104.60;;;;;;;8.00;68.26;98092.16;231937;205;137922;-62
2024/02/26 07:11:56;;;;;;;36.20;20.70;;;;;;;8.23;68.77;98094.30;232062;198;153967;-62
2024/02/26 07:17:03;;;;;;;32.00;14.70;;;;;;;8.37;67.78;98098.84;231926;203;137887;-61
2024/02/26 07:22:06;;;;;;;26.60;13.40;;;;;;;8.50;67.68;98090.55;232097;202;137402;-61
2024/02/26 07:27:10;;;;;;;30.30;14.10;;;;;;;8.62;67.56;98093.80;232026;198;153120;-62
2024/02/26 07:32:14;;;;;;;27.60;13.20;;;;;;;8.76;67.49;98097.95;231889;205;138824;-61
2024/02/26 07:37:17;;;;;;;21.50;12.80;;;;;;;8.96;67.14;98095.33;231928;198;139044;-62
2024/02/26 07:42:20;;;;;;;26.00;12.60;;;;;;;9.19;67.03;98082.35;232044;202;153905;-62
2024/02/26 07:47:23;;;;;;;33.60;13.00;;;;;;;9.43;66.66;98095.80;232066;202;138284;-61
2024/02/26 07:52:27;;;;;;;28.00;12.90;;;;;;;9.62;65.79;98090.90;232000;205;138533;-61
2024/02/26 07:57:31;;;;;;;28.40;12.60;;;;;;;9.84;66.31;98084.31;231900;204;153062;-60
2024/02/26 08:02:34;;;;;;;31.70;12.10;;;;;;;10.01;65.45;98095.25;231706;204;138549;-63
2024/02/26 08:07:38;;;;;;;34.20;12.10;;;;;;;10.08;65.26;98103.43;231866;201;137265;-58
2024/02/26 08:12:42;;;;;;;27.30;10.60;;;;;;;10.14;65.49;98094.98;231970;198;153779;-60
2024/02/26 08:17:47;;;;;;;33.00;10.30;;;;;;;10.25;65.64;98089.75;231945;198;138458;-58
2024/02/26 08:22:51;;;;;;;22.00;8.50;;;;;;;10.39;65.82;98095.75;232133;198;139378;-59
2024/02/26 08:27:54;;;;;;;128.70;91.00;;;;;;;10.58;66.65;98092.70;232009;197;153362;-58
2024/02/26 08:32:57;;;;;;;31.30;16.30;;;;;;;10.86;67.36;98094.46;231785;198;138138;-58
2024/02/26 08:38:00;;;;;;;14.10;8.70;;;;;;;11.09;66.92;98099.05;231863;201;138354;-59
2024/02/26 08:43:04;;;;;;;19.20;8.10;;;;;;;11.31;66.67;98092.14;232052;201;154440;-58
2024/02/26 08:48:07;;;;;;;23.20;8.70;;;;;;;11.59;66.59;98089.29;232023;198;138772;-58
2024/02/26 08:53:11;;;;;;;24.80;8.40;;;;;;;11.84;65.92;98089.06;232165;197;140284;-57
2024/02/26 08:58:14;;;;;;;891.40;572.60;;;;;;;12.10;65.97;98079.64;231969;204;153277;-57
2024/02/26 09:03:17;;;;;;;32.80;19.50;;;;;;;12.39;65.80;98074.40;232042;197;137955;-57
2024/02/26 09:08:22;;;;;;;17.10;7.50;;;;;;;12.62;65.15;98064.35;232088;198;138600;-56
2024/02/26 09:13:25;;;;;;;12.20;7.70;;;;;;;12.79;64.34;98059.32;232127;205;153049;-56
2024/02/26 09:18:28;;;;;;;11.00;6.70;;;;;;;12.87;63.88;98063.46;232012;201;138170;-56
2024/02/26 09:23:32;;;;;;;10.60;6.80;;;;;;;12.91;63.67;98065.59;232070;204;141133;-59
2024/02/26 09:28:37;;;;;;;26.20;15.80;;;;;;;12.89;63.85;98068.59;232037;198;153832;-59
2024/02/26 09:33:40;;;;;;;14.20;6.40;;;;;;;12.97;63.72;98066.13;232049;202;139042;-59
2024/02/26 09:38:44;;;;;;;252.00;170.80;;;;;;;13.01;63.47;98068.25;232070;204;138313;-62
2024/02/26 09:44:04;;;;;;;37.10;24.90;;;;;;;13.05;63.91;98070.44;231909;201;153945;-60
2024/02/26 09:49:09;;;;;;;12.00;6.70;;;;;;;13.09;63.53;98076.16;232020;201;141355;-61
2024/02/26 09:54:15;;;;;;;9.80;5.50;;;;;;;13.10;63.32;98075.38;232010;201;137884;-62
2024/02/26 09:59:18;;;;;;;8.80;5.50;;;;;;;13.14;63.07;98073.36;232065;204;153618;-62
2024/02/26 10:04:22;;;;;;;9.00;4.80;;;;;;;13.21;63.17;98074.18;231982;204;140958;-61
2024/02/26 10:09:26;;;;;;;5.90;4.70;;;;;;;13.36;63.33;98067.92;231897;202;138053;-62
2024/02/26 10:14:29;;;;;;;7.70;4.00;;;;;;;13.55;63.16;98058.67;231951;198;153177;-61
2024/02/26 10:19:32;;;;;;;8.50;3.90;;;;;;;13.75;62.78;98054.20;232044;198;140096;-61
2024/02/26 10:24:40;;;;;;;5.50;3.30;;;;;;;14.08;62.84;98051.23;231982;204;138494;-61
2024/02/26 10:29:44;;;;;;;175.20;132.70;;;;;;;14.55;62.28;98044.69;232120;201;153996;-62
2024/02/26 10:34:47;;;;;;;43.10;27.60;;;;;;;15.00;61.29;98046.29;232042;198;137831;-62
2024/02/26 10:39:51;;;;;;;28.90;16.20;;;;;;;15.31;60.26;98043.65;231866;199;138748;-60
2024/02/26 10:44:54;;;;;;;9.60;2.80;;;;;;;15.71;58.55;98037.39;231972;198;153280;-60
2024/02/26 10:49:58;;;;;;;5.70;2.30;;;;;;;16.04;56.62;98032.21;231890;205;137983;-61
2024/02/26 10:55:03;;;;;;;5.20;2.20;;;;;;;16.43;55.92;98030.69;232081;197;138948;-60
2024/02/26 11:00:10;;;;;;;11.00;3.10;;;;;;;16.81;54.41;98020.58;232014;204;153156;-60
2024/02/26 11:05:14;;;;;;;82.00;66.20;;;;;;;17.01;53.38;98019.68;232015;201;139556;-59
2024/02/26 11:10:18;;;;;;;6.00;2.60;;;;;;;17.21;52.79;98013.48;232363;196;138174;-59
2024/02/26 11:15:22;;;;;;;4.00;2.30;;;;;;;17.47;52.02;98007.13;232248;203;153110;-59
2024/02/26 11:20:28;;;;;;;6.30;2.20;;;;;;;17.70;51.91;98004.67;232225;196;138398;-58
2024/02/26 11:25:31;;;;;;;4.10;1.80;;;;;;;17.90;51.38;97997.90;232297;197;138843;-60
2024/02/26 11:30:43;;;;;;;6.50;2.60;;;;;;;18.06;50.43;97996.82;232430;203;153392;-60
2024/02/26 11:35:46;;;;;;;6.00;2.40;;;;;;;18.00;49.83;97992.51;232292;203;137746;-61
2024/02/26 11:40:50;;;;;;;9.90;2.50;;;;;;;18.12;49.30;97992.72;232417;200;138034;-59
2024/02/26 11:45:56;;;;;;;3.80;2.50;;;;;;;18.02;49.02;97993.83;232255;204;153041;-58
2024/02/26 11:50:59;;;;;;;4.40;2.10;;;;;;;18.05;49.48;97987.61;232333;200;140526;-60
2024/02/26 11:56:24;;;;;;;2.80;2.10;;;;;;;18.11;49.32;97984.20;232390;203;138958;-59
2024/02/26 12:01:42;;;;;;;4.80;2.20;;;;;;;18.04;48.64;97986.83;232247;201;153332;-59
2024/02/26 12:06:56;;;;;;;2.60;2.20;;;;;;;17.96;49.09;97988.00;232366;201;138698;-59
2024/02/26 12:12:08;;;;;;;5.80;2.20;;;;;;;17.87;49.01;97989.38;232211;204;142318;-61
2024/02/26 12:17:23;;;;;;;3.40;2.20;;;;;;;17.81;49.18;97982.58;232397;207;153915;-60
2024/02/26 12:22:27;;;;;;;5.30;2.70;;;;;;;17.85;49.49;97983.92;232324;200;138727;-58
2024/02/26 12:27:30;;;;;;;4.60;2.70;;;;;;;17.93;48.78;97974.89;232444;204;138649;-60
2024/02/26 12:32:35;;;;;;;7.60;3.00;;;;;;;18.04;48.52;97968.89;232207;204;153143;-60
2024/02/26 12:37:38;;;;;;;4.00;2.80;;;;;;;18.11;48.43;97979.35;232297;204;138950;-60
2024/02/26 12:42:46;;;;;;;3.70;2.70;;;;;;;18.18;48.13;97983.45;232308;204;139564;-60
2024/02/26 12:47:52;;;;;;;4.10;2.80;;;;;;;18.03;48.10;97982.63;232249;201;153874;-60
2024/02/26 12:52:55;;;;;;;6.40;2.70;;;;;;;17.94;48.08;97980.00;231846;201;139685;-57
2024/02/26 12:57:58;;;;;;;4.00;2.30;;;;;;;17.89;47.50;97980.33;232228;204;138510;-56
2024/02/26 13:03:02;;;;;;;4.70;2.60;;;;;;;17.85;47.80;97981.91;232268;201;153661;-56
2024/02/26 13:08:08;;;;;;;5.40;2.80;;;;;;;17.79;48.01;97986.52;232237;197;138050;-57
2024/02/26 13:13:15;;;;;;;7.00;2.70;;;;;;;17.75;48.47;97979.05;232316;204;137971;-57
2024/02/26 13:18:18;;;;;;;5.80;3.10;;;;;;;17.73;48.74;97975.10;232102;204;153142;-57
2024/02/26 13:23:21;;;;;;;4.40;3.10;;;;;;;17.73;48.52;97976.48;232229;204;138027;-56
2024/02/26 13:28:27;;;;;;;6.80;3.30;;;;;;;17.73;48.43;97979.95;232177;204;137332;-57
2024/02/26 13:33:30;;;;;;;3.80;3.40;;;;;;;17.63;48.41;97982.27;232162;197;153931;-57
2024/02/26 13:38:34;;;;;;;5.10;3.50;;;;;;;17.56;48.88;97982.30;232158;204;137607;-56
2024/02/26 13:43:37;;;;;;;6.10;3.60;;;;;;;17.55;49.39;97985.09;232175;203;138419;-57
2024/02/26 13:48:41;;;;;;;3.90;3.50;;;;;;;17.51;49.02;97989.80;232242;204;153228;-57
2024/02/26 13:53:45;;;;;;;7.30;3.70;;;;;;;17.47;49.21;97992.74;232044;198;137956;-58
2024/02/26 13:58:48;;;;;;;10.40;4.20;;;;;;;17.43;49.33;97992.44;232340;200;138092;-58
2024/02/26 14:03:54;;;;;;;8.70;3.80;;;;;;;17.39;49.46;97994.38;232202;204;153597;-60
2024/02/26 14:08:58;;;;;;;5.40;4.30;;;;;;;17.37;49.64;97996.95;232084;204;138080;-60
2024/02/26 14:14:02;;;;;;;8.00;4.20;;;;;;;17.29;49.80;97998.11;232140;198;141320;-60
2024/02/26 14:19:06;;;;;;;10.70;5.10;;;;;;;17.25;49.99;97995.14;232193;204;154668;-60
2024/02/26 14:24:09;;;;;;;99.20;70.70;;;;;;;17.20;50.22;97996.34;232237;200;137575;-60
2024/02/26 14:29:12;;;;;;;7.90;5.90;;;;;;;17.27;50.79;97996.73;232264;197;137632;-60
2024/02/26 14:34:18;;;;;;;6.60;5.50;;;;;;;17.26;50.13;97994.46;232287;204;153143;-60
2024/02/26 14:39:21;;;;;;;10.70;5.60;;;;;;;17.22;49.88;97990.39;232130;200;142287;-61
2024/02/26 14:44:25;;;;;;;8.60;6.20;;;;;;;17.12;50.17;98003.67;232005;204;138232;-61
2024/02/26 14:49:30;;;;;;;9.40;6.10;;;;;;;17.06;50.17;98006.63;232192;204;154075;-61
2024/02/26 14:54:37;;;;;;;9.80;5.90;;;;;;;17.01;50.41;98018.27;232234;204;137779;-61
2024/02/26 14:59:40;;;;;;;9.60;7.00;;;;;;;16.95;50.41;98018.35;232336;201;138189;-61
2024/02/26 15:04:44;;;;;;;9.00;6.20;;;;;;;16.83;50.55;98009.98;231946;204;154939;-61
2024/02/26 15:09:48;;;;;;;8.50;6.80;;;;;;;16.71;50.83;98009.08;232142;197;137551;-61
2024/02/26 15:14:51;;;;;;;7.50;6.70;;;;;;;16.60;51.18;98017.17;231994;201;138332;-60
2024/02/26 15:19:56;;;;;;;9.40;7.50;;;;;;;16.52;51.43;98028.36;232254;204;152958;-61
2024/02/26 15:25:00;;;;;;;11.40;7.60;;;;;;;16.45;51.71;98033.56;232099;200;138373;-61
2024/02/26 15:30:04;;;;;;;11.40;7.70;;;;;;;16.38;51.74;98029.62;232124;201;138010;-63
2024/02/26 15:35:09;;;;;;;11.00;7.40;;;;;;;16.26;52.16;98024.86;232284;204;153148;-62
2024/02/26 15:40:13;;;;;;;10.30;7.10;;;;;;;16.21;52.33;98036.23;232072;196;138287;-61
2024/02/26 15:45:17;;;;;;;9.60;7.80;;;;;;;16.12;52.65;98041.25;232093;200;138487;-61
2024/02/26 15:50:20;;;;;;;12.40;7.40;;;;;;;16.06;52.89;98044.48;232159;201;153146;-63
2024/02/26 15:55:23;;;;;;;13.30;8.50;;;;;;;16.03;53.05;98047.14;232062;196;138669;-62
2024/02/26 16:00:26;;;;;;;14.70;9.10;;;;;;;15.96;53.23;98055.90;232118;204;137660;-62
2024/02/26 16:05:29;;;;;;;13.80;9.00;;;;;;;15.89;53.43;98058.95;232164;200;153092;-62
2024/02/26 16:10:33;;;;;;;11.80;8.70;;;;;;;15.79;53.65;98061.68;232135;204;138388;-61
2024/02/26 16:15:36;;;;;;;10.90;8.50;;;;;;;15.71;53.84;98068.36;232263;196;137659;-61
2024/02/26 16:20:39;;;;;;;14.80;9.60;;;;;;;15.64;54.01;98075.11;232234;204;153360;-61
2024/02/26 16:25:42;;;;;;;17.50;9.70;;;;;;;15.56;54.31;98076.48;232253;204;137536;-61
2024/02/26 16:30:46;;;;;;;16.10;9.30;;;;;;;15.45;54.64;98083.98;232170;204;142148;-62
2024/02/26 16:35:49;;;;;;;21.20;11.50;;;;;;;15.37;54.92;98091.34;232272;204;155886;-62
2024/02/26 16:40:52;;;;;;;19.50;12.10;;;;;;;15.30;54.95;98090.55;232358;200;139048;-62
2024/02/26 16:45:55;;;;;;;19.40;12.80;;;;;;;15.27;54.93;98089.41;232189;204;138433;-62
2024/02/26 16:50:59;;;;;;;18.60;13.00;;;;;;;15.23;54.88;98090.39;232258;197;152927;-62
2024/02/26 16:56:02;;;;;;;22.30;12.90;;;;;;;15.11;55.13;98091.38;232149;204;137227;-61
2024/02/26 17:01:06;;;;;;;23.70;13.00;;;;;;;14.98;55.41;98098.83;232223;200;138363;-61
2024/02/26 17:06:10;;;;;;;24.70;13.30;;;;;;;14.89;55.69;98103.46;232273;196;153349;-62
2024/02/26 17:11:15;;;;;;;22.90;13.30;;;;;;;14.82;55.91;98106.75;232261;204;137685;-62
2024/02/26 17:16:19;;;;;;;21.10;13.90;;;;;;;14.76;56.11;98114.15;232289;196;138676;-62
2024/02/26 17:21:23;;;;;;;21.80;13.30;;;;;;;14.70;56.21;98119.14;232244;200;153268;-62
2024/02/26 17:26:26;;;;;;;23.40;12.90;;;;;;;14.67;56.31;98122.45;232318;204;137626;-62
2024/02/26 17:31:30;;;;;;;22.70;14.80;;;;;;;14.62;56.39;98127.55;232125;204;138418;-63
2024/02/26 17:36:33;;;;;;;24.00;14.10;;;;;;;14.61;56.45;98129.63;232218;201;153258;-63
2024/02/26 17:41:37;;;;;;;26.40;14.50;;;;;;;14.59;56.50;98137.13;232288;201;138559;-60
2024/02/26 17:46:40;;;;;;;23.60;15.20;;;;;;;14.57;56.47;98139.35;232035;202;138415;-60
2024/02/26 17:51:44;;;;;;;19.40;13.90;;;;;;;14.51;56.60;98141.80;232055;201;153353;-61
2024/02/26 17:56:47;;;;;;;22.80;15.30;;;;;;;14.44;56.82;98144.43;232195;204;139012;-61
2024/02/26 18:01:50;;;;;;;80.30;53.00;;;;;;;14.37;57.23;98148.57;232125;204;138709;-59
2024/02/26 18:06:53;;;;;;;24.60;16.30;;;;;;;14.31;57.17;98152.52;232183;204;153856;-59
2024/02/26 18:11:57;;;;;;;27.10;16.00;;;;;;;14.23;57.25;98157.52;232278;201;138321;-57
2024/02/26 18:17:00;;;;;;;26.90;16.50;;;;;;;14.13;57.37;98163.80;232303;204;139289;-58
2024/02/26 18:22:04;;;;;;;32.80;16.00;;;;;;;14.07;57.56;98170.48;232205;201;154017;-57
2024/02/26 18:27:07;;;;;;;24.30;15.30;;;;;;;14.00;57.61;98176.96;232089;202;140225;-58
2024/02/26 18:32:11;;;;;;;28.40;16.50;;;;;;;13.87;57.78;98184.87;232171;201;138276;-59
2024/02/26 18:37:14;;;;;;;27.90;17.70;;;;;;;13.75;58.06;98189.73;232044;200;153037;-59
2024/02/26 18:42:19;;;;;;;32.10;16.80;;;;;;;13.64;58.41;98196.02;232223;204;138117;-63
2024/02/26 18:47:23;;;;;;;30.40;17.00;;;;;;;13.51;58.61;98198.04;232334;197;137968;-57
2024/02/26 18:52:26;;;;;;;32.40;17.10;;;;;;;13.39;58.94;98201.78;231979;198;153419;-59
2024/02/26 18:57:30;;;;;;;32.00;17.90;;;;;;;13.28;59.20;98205.05;232180;204;137497;-58
2024/02/26 19:02:33;;;;;;;42.40;18.50;;;;;;;13.16;59.64;98207.31;232028;204;137313;-59
2024/02/26 19:07:36;;;;;;;38.00;18.40;;;;;;;13.04;60.12;98223.10;232068;201;153559;-57
2024/02/26 19:12:44;;;;;;;33.20;17.50;;;;;;;12.94;60.43;98228.95;232128;201;138259;-58
2024/02/26 19:17:47;;;;;;;35.40;18.30;;;;;;;12.90;60.82;98244.61;232121;198;138432;-59
2024/02/26 19:22:52;;;;;;;35.10;19.00;;;;;;;12.86;61.15;98251.20;232176;198;152987;-61
2024/02/26 19:27:55;;;;;;;33.10;18.80;;;;;;;12.81;61.77;98252.11;231990;201;139561;-60
2024/02/26 19:32:58;;;;;;;38.60;19.50;;;;;;;12.77;61.92;98258.88;232151;204;137906;-60
2024/02/26 19:38:02;;;;;;;39.40;19.50;;;;;;;12.74;62.10;98266.25;232086;197;153898;-61
2024/02/26 19:43:05;;;;;;;34.70;20.20;;;;;;;12.66;62.27;98271.71;232196;198;142702;-58
2024/02/26 19:48:08;;;;;;;34.00;19.20;;;;;;;12.67;62.66;98271.05;232241;200;138464;-60
2024/02/26 19:53:12;;;;;;;51.00;20.20;;;;;;;12.68;62.98;98278.35;232333;204;153388;-62
2024/02/26 19:58:16;;;;;;;54.80;20.40;;;;;;;12.64;63.20;98286.27;232092;200;138583;-62
2024/02/26 20:03:19;;;;;;;70.00;22.60;;;;;;;12.64;63.31;98280.24;232156;204;139143;-59
2024/02/26 20:08:22;;;;;;;72.60;22.10;;;;;;;12.60;63.29;98294.48;232066;204;153420;-60
2024/02/26 20:13:28;;;;;;;65.80;22.20;;;;;;;12.57;63.24;98288.83;232211;196;138875;-61
2024/02/26 20:18:31;;;;;;;364.60;238.60;;;;;;;12.59;63.67;98297.56;232305;200;138509;-60
2024/02/26 20:23:34;;;;;;;52.40;25.60;;;;;;;12.75;63.60;98291.41;232254;198;153080;-59
2024/02/26 20:28:39;;;;;;;62.60;26.80;;;;;;;12.80;62.92;98295.49;232193;204;138142;-60
2024/02/26 20:33:42;;;;;;;50.20;27.00;;;;;;;12.76;62.63;98299.33;231989;197;138399;-58
2024/02/26 20:38:48;;;;;;;50.70;26.60;;;;;;;12.71;62.60;98307.42;232215;200;153621;-58
2024/02/26 20:43:51;;;;;;;45.80;26.80;;;;;;;12.62;62.68;98312.27;232285;197;138389;-60
2024/02/26 20:48:54;;;;;;;48.00;27.40;;;;;;;12.55;62.89;98311.03;232286;201;137520;-59
2024/02/26 20:53:57;;;;;;;154.40;106.70;;;;;;;12.47;63.37;98314.36;232124;201;153460;-59
2024/02/26 20:59:01;;;;;;;132.90;75.60;;;;;;;12.46;64.27;98320.64;232294;204;138173;-61
2024/02/26 21:04:05;;;;;;;55.90;30.00;;;;;;;12.48;63.37;98328.33;232242;204;139389;-60
2024/02/26 21:09:09;;;;;;;47.40;27.80;;;;;;;12.36;63.27;98334.30;232242;198;153145;-60
2024/02/26 21:14:12;;;;;;;49.40;28.60;;;;;;;12.22;63.41;98342.54;232227;204;138307;-59
2024/02/26 21:19:15;;;;;;;46.70;28.20;;;;;;;12.13;63.76;98339.38;232129;200;138265;-59
2024/02/26 21:24:19;;;;;;;51.20;27.80;;;;;;;12.08;63.91;98353.23;232280;205;152977;-57
2024/02/26 21:29:22;;;;;;;49.90;27.90;;;;;;;11.99;63.92;98354.35;232355;204;137513;-57
2024/02/26 21:34:25;;;;;;;45.40;28.00;;;;;;;11.85;64.29;98359.73;232135;204;137766;-57
2024/02/26 21:39:29;;;;;;;46.00;29.60;;;;;;;11.80;64.83;98360.92;232165;201;153203;-60
2024/02/26 21:44:32;;;;;;;43.30;24.70;;;;;;;11.74;64.49;98362.98;232157;204;138204;-61
2024/02/26 21:49:35;;;;;;;47.60;26.60;;;;;;;11.71;64.58;98362.33;232154;200;138804;-63
2024/02/26 21:54:47;;;;;;;43.90;25.30;;;;;;;11.68;64.65;98369.70;232244;201;154638;-65
2024/02/26 21:59:50;;;;;;;40.20;24.30;;;;;;;11.59;64.68;98368.58;232304;204;137859;-64
2024/02/26 22:04:54;;;;;;;42.00;25.10;;;;;;;11.52;64.94;98378.04;232334;204;138415;-63
2024/02/26 22:09:57;;;;;;;47.30;27.00;;;;;;;11.46;64.97;98386.66;232182;201;154046;-63
2024/02/26 22:15:04;;;;;;;50.80;27.40;;;;;;;11.36;65.00;98387.23;232286;203;137446;-60
2024/02/26 22:20:09;;;;;;;51.50;29.10;;;;;;;11.20;65.01;98388.96;232219;204;138404;-58
2024/02/26 22:25:13;;;;;;;46.00;29.20;;;;;;;11.03;65.16;98391.67;232086;204;153794;-58
2024/02/26 22:30:17;;;;;;;48.70;29.40;;;;;;;10.90;65.40;98394.56;232202;204;138371;-58
2024/02/26 22:35:20;;;;;;;55.40;31.60;;;;;;;10.78;65.76;98400.11;231914;201;138705;-60
2024/02/26 22:40:23;;;;;;;52.00;28.60;;;;;;;10.66;65.89;98398.83;232239;204;154602;-61
2024/02/26 22:45:27;;;;;;;45.10;28.90;;;;;;;10.58;66.27;98399.77;232156;201;139131;-61
2024/02/26 22:50:30;;;;;;;47.80;29.90;;;;;;;10.51;66.47;98399.58;232175;197;137670;-59
2024/02/26 22:55:33;;;;;;;50.20;32.60;;;;;;;10.44;66.71;98400.25;232214;201;153103;-60
2024/02/26 23:00:39;;;;;;;50.80;32.20;;;;;;;10.37;67.14;98399.48;232155;200;138208;-61
2024/02/26 23:05:43;;;;;;;56.30;30.30;;;;;;;10.32;67.24;98411.41;232405;204;137795;-60
2024/02/26 23:10:47;;;;;;;46.10;28.60;;;;;;;10.29;67.63;98414.25;232383;204;154151;-60
2024/02/26 23:15:52;;;;;;;48.10;29.70;;;;;;;10.30;67.76;98419.48;232015;204;138289;-61